Aviation Digital Data Service (ADDS)

Output produced by METARs form (2356 UTC 24 February 2018)
found at http://www.aviationweather.gov/adds/metars/
 
METAR text: EFUT 242350Z AUTO 35005KT 9999 OVC038 M16/M18 Q1037
Conditions at: EFUT (UTTI (FIN-AFB) , FI) observed 2350 UTC 24 February 2018
Temperature: -16.0°C (3°F)
Dewpoint: -18.0°C (-0°F) [RH = 85%]
Pressure (altimeter): 30.62 inches Hg (1037.0 mb)
Winds: from the N (350 degrees) at 6 MPH (5 knots; 2.6 m/s)
Visibility: 6 or more miles (10+ km)
Ceiling: 3800 feet AGL
Clouds: overcast cloud deck at 3800 feet AGL
Weather: no significant weather observed at this time